Time;durP1;ratioP1;P1;durP2;ratioP2;P2;SDS_P1;SDS_P2;PMS_P1;PMS_P2;Temp;Humidity;BMP_temperature;BMP_pressure;BME280_temperature;BME280_humidity;BME280_pressure;Samples;Min_cycle;Max_cycle;Signal;HPM_P1;HPM_P2
2023/09/19 00:01:19;;;;;;;;;;;;;;;;;;;;;
2023/09/19 00:04:33;;;;;;;;;;;;;;;;;;;;;
2023/09/19 00:07:22;;;;;;;;;;;;;;;;;;;;;
2023/09/19 00:10:12;;;;;;;;;;;;;;;;;;;;;
2023/09/19 00:16:24;;;;;;;0.52;0.22;;;;;;;25.67;60.57;99164.47;5320284;27;20343;-94
2023/09/19 00:18:50;;;;;;;;;;;;;;;25.43;60.56;99169.66;5285237;27;20134;-94
2023/09/19 00:21:15;;;;;;;0.15;0.13;;;;;;;25.53;60.56;99173.03;5303583;27;19994;-96
2023/09/19 00:23:41;;;;;;;0.70;0.70;;;;;;;25.46;60.57;99167.50;5285012;27;20076;-94
2023/09/19 00:26:07;;;;;;;1.00;0.60;;;;;;;25.48;60.57;99170.84;5285988;27;20125;-96
2023/09/19 00:28:32;;;;;;;1.10;1.02;;;;;;;25.33;60.56;99167.09;5292219;26;20080;-94
2023/09/19 00:31:01;;;;;;;0.57;0.57;;;;;;;25.36;60.56;99166.78;5294107;26;20076;-93
2023/09/19 00:33:27;;;;;;;0.55;0.55;;;;;;;25.34;60.56;99158.94;5285687;27;20052;-94
2023/09/19 00:35:53;;;;;;;0.45;0.40;;;;;;;25.24;60.55;99152.88;5284098;27;20078;-93
2023/09/19 00:38:24;;;;;;;1.27;0.70;;;;;;;25.27;60.55;99163.22;5283650;27;20075;-95
2023/09/19 00:40:51;;;;;;;3.03;1.98;;;;;;;25.19;60.55;99163.16;5283971;27;20049;-93
2023/09/19 00:43:16;;;;;;;1.15;1.12;;;;;;;25.24;60.55;99158.19;5310413;26;20071;-95
2023/09/19 00:45:43;;;;;;;3.22;1.10;;;;;;;25.08;60.55;99155.44;5332307;26;20078;-94
2023/09/19 00:48:09;;;;;;;0.62;0.57;;;;;;;25.17;60.56;99151.84;5332805;26;20060;-94
2023/09/19 00:50:35;;;;;;;1.70;0.50;;;;;;;25.12;60.54;99163.97;5332350;26;20087;-95
2023/09/19 00:53:14;;;;;;;1.37;1.27;;;;;;;25.16;60.55;99154.66;5332734;26;20069;-94
2023/09/19 00:55:43;;;;;;;0.75;0.73;;;;;;;25.16;60.55;99152.00;5332862;26;20059;-95
2023/09/19 00:58:10;;;;;;;1.15;1.00;;;;;;;25.11;60.55;99151.62;5333135;26;20064;-95
2023/09/19 01:00:35;;;;;;;1.87;0.95;;;;;;;25.13;60.54;99161.13;5332789;26;20056;-93
2023/09/19 01:03:06;;;;;;;0.82;0.82;;;;;;;25.12;60.54;99156.81;5331730;26;20051;-94
2023/09/19 01:05:32;;;;;;;0.70;0.43;;;;;;;25.13;60.54;99155.81;5333191;26;20081;-95
2023/09/19 01:07:58;;;;;;;0.73;0.73;;;;;;;25.01;60.54;99159.69;5332375;26;20122;-95
2023/09/19 01:10:26;;;;;;;0.40;0.25;;;;;;;25.05;60.54;99153.06;5332794;26;20047;-93
2023/09/19 01:13:13;;;;;;;6.20;1.30;;;;;;;25.16;60.56;99154.66;5333842;26;20043;-94
2023/09/19 01:15:41;;;;;;;0.22;0.22;;;;;;;25.10;60.55;99156.13;5352971;26;20055;-95
2023/09/19 01:18:08;;;;;;;0.82;0.82;;;;;;;25.12;60.54;99154.16;5351732;26;20078;-94
2023/09/19 01:23:41;;;;;;;0.88;0.57;;;;;;;25.13;60.55;99157.63;5383512;26;20107;-94
2023/09/19 01:26:31;;;;;;;2.35;1.10;;;;;;;25.18;60.55;99158.84;5370264;26;20067;-94
2023/09/19 01:29:13;;;;;;;2.37;0.85;;;;;;;25.10;60.55;99156.13;5371243;26;20100;-94
2023/09/19 01:31:39;;;;;;;0.98;0.90;;;;;;;25.16;60.55;99152.00;5370911;26;20423;-93
2023/09/19 01:34:07;;;;;;;0.90;0.90;;;;;;;25.15;60.55;99139.69;5332622;26;20042;-96
2023/09/19 01:36:49;;;;;;;0.95;0.88;;;;;;;25.10;60.55;99137.47;5333967;26;20059;-95
2023/09/19 01:39:19;;;;;;;8.75;1.20;;;;;;;25.10;60.55;99140.16;5336985;26;20641;-93
2023/09/19 01:42:29;;;;;;;2.35;1.48;;;;;;;25.06;60.54;99136.94;5335108;26;20083;-95
2023/09/19 01:45:04;;;;;;;1.58;0.98;;;;;;;25.14;60.54;99138.00;5264990;27;20036;-95
2023/09/19 01:47:29;;;;;;;5.03;1.52;;;;;;;25.09;60.54;99141.16;5348151;26;20109;-92
2023/09/19 01:50:21;;;;;;;0.73;0.73;;;;;;;25.14;60.55;99133.50;5373892;26;20063;-92
2023/09/19 01:52:55;;;;;;;0.37;0.37;;;;;;;25.08;60.55;99147.47;5336478;26;20055;-94
2023/09/19 01:55:22;;;;;;;0.77;0.77;;;;;;;24.97;60.53;99139.69;5366429;26;20030;-93
2023/09/19 01:58:04;;;;;;;4.93;1.42;;;;;;;24.98;60.53;99141.34;5338440;26;20101;-94
2023/09/19 02:00:29;;;;;;;1.37;1.27;;;;;;;24.96;60.54;99143.34;5371720;26;20109;-93
2023/09/19 02:02:58;;;;;;;3.85;1.87;;;;;;;24.79;60.53;99143.19;5334654;26;20059;-93
2023/09/19 02:05:24;;;;;;;1.45;1.10;;;;;;;24.84;60.54;99148.06;5334796;26;20094;-93
2023/09/19 02:08:12;;;;;;;4.22;2.05;;;;;;;24.94;60.54;99138.16;5352731;26;20067;-93
2023/09/19 02:11:06;;;;;;;3.53;0.88;;;;;;;24.86;60.53;99132.78;5341029;26;20069;-94
2023/09/19 02:13:37;;;;;;;1.50;1.05;;;;;;;24.89;60.53;99139.63;5358537;26;20075;-94
2023/09/19 02:16:04;;;;;;;0.57;0.57;;;;;;;24.77;60.53;99139.84;5335955;26;20062;-92
2023/09/19 02:18:34;;;;;;;0.52;0.52;;;;;;;24.69;60.52;99150.44;5352776;26;20808;-94
2023/09/19 02:21:06;;;;;;;3.33;1.58;;;;;;;24.69;60.53;99142.47;5335364;26;20059;-95
2023/09/19 02:24:15;;;;;;;0.35;0.35;;;;;;;24.61;60.52;99133.59;5334679;26;20059;-95
2023/09/19 02:27:15;;;;;;;;;;;;;;;;;;;;;
2023/09/19 02:34:27;;;;;;;;;;;;;;;;;;;;;
2023/09/19 02:43:15;;;;;;;1.17;1.10;;;;;;;24.51;60.51;99143.47;5274622;27;20120;-92
2023/09/19 02:46:03;;;;;;;;;;;;;;;;;;;;;
2023/09/19 02:48:58;;;;;;;0.22;0.20;;;;;;;24.33;60.50;99136.31;5372837;26;35759;-94
2023/09/19 02:52:14;;;;;;;;;;;;;;;;;;;;;
2023/09/19 03:09:43;;;;;;;0.55;0.55;;;;;;;23.72;60.47;99144.09;5275927;26;20681;-94
2023/09/19 03:15:19;;;;;;;4.68;2.00;;;;;;;23.72;60.47;99158.19;5337185;26;20047;-93
2023/09/19 03:17:45;;;;;;;2.72;1.85;;;;;;;23.93;60.48;99152.66;5326977;26;20094;-92
2023/09/19 03:20:12;;;;;;;0.65;0.55;;;;;;;23.86;60.48;99148.88;5316376;26;20424;-93
2023/09/19 03:22:39;;;;;;;0.95;0.95;;;;;;;23.88;60.49;99147.75;5312759;26;20048;-94
2023/09/19 03:25:31;;;;;;;0.45;0.45;;;;;;;23.80;60.47;99147.66;5311483;26;20049;-92
2023/09/19 03:27:58;;;;;;;1.50;1.40;;;;;;;23.89;60.47;99137.94;5333545;26;20075;-92
2023/09/19 03:30:23;;;;;;;1.50;1.40;;;;;;;23.71;60.46;99140.59;5311061;26;20074;-94
2023/09/19 03:32:49;;;;;;;3.87;1.30;;;;;;;23.65;60.46;99145.63;5311327;26;20052;-93
2023/09/19 03:35:16;;;;;;;0.60;0.60;;;;;;;23.79;60.47;99148.66;5311217;26;20055;-94
2023/09/19 03:37:42;;;;;;;1.77;1.33;;;;;;;23.89;60.48;99152.09;5311468;26;20056;-93
2023/09/19 03:40:11;;;;;;;5.10;1.05;;;;;;;23.80;60.47;99157.47;5311298;26;20056;-94
2023/09/19 03:42:40;;;;;;;1.42;1.33;;;;;;;23.84;60.48;99151.69;5368626;26;20051;-94
2023/09/19 03:46:07;;;;;;;0.40;0.40;;;;;;;23.96;60.48;99149.69;5311104;26;20112;-92
2023/09/19 03:48:33;;;;;;;1.90;0.90;;;;;;;23.92;60.48;99150.97;5307731;26;20144;-94
2023/09/19 03:54:45;;;;;;;;;;;;;;;;;;;;;
2023/09/19 03:57:16;;;;;;;1.65;1.40;;;;;;;23.80;60.47;99158.28;5281509;27;37334;-93
2023/09/19 03:59:47;;;;;;;1.45;1.10;;;;;;;23.91;60.48;99154.63;5301225;26;20124;-95
2023/09/19 04:02:21;;;;;;;2.25;0.90;;;;;;;23.85;60.47;99165.81;5311645;26;20078;-92
2023/09/19 04:04:52;;;;;;;4.22;2.72;;;;;;;23.66;60.47;99161.44;5331893;26;20052;-94
2023/09/19 04:08:22;;;;;;;;;;;;;;;;;;;;;
2023/09/19 04:10:48;;;;;;;1.65;1.55;;;;;;;23.80;60.47;99157.47;5367584;26;35767;-95
2023/09/19 04:13:49;;;;;;;10.07;1.95;;;;;;;23.58;60.46;99166.62;5311113;26;20048;-95
2023/09/19 04:16:14;;;;;;;1.35;1.25;;;;;;;23.62;60.47;99164.53;5348008;26;20798;-94
2023/09/19 04:18:40;;;;;;;1.05;0.52;;;;;;;23.64;60.45;99168.72;5311059;26;20044;-95
2023/09/19 04:21:05;;;;;;;0.40;0.40;;;;;;;23.66;60.46;99176.53;5329323;26;20056;-91
2023/09/19 04:23:31;;;;;;;4.65;0.68;;;;;;;23.72;60.47;99176.81;5310687;26;20076;-91
2023/09/19 04:25:57;;;;;;;0.47;0.30;;;;;;;23.57;60.47;99181.75;5310507;26;20816;-92
2023/09/19 04:28:24;;;;;;;0.30;0.20;;;;;;;23.61;60.46;99190.25;5311258;26;20044;-95
2023/09/19 04:30:49;;;;;;;0.00;0.00;;;;;;;23.26;60.44;99188.25;5312709;26;20131;-95
2023/09/19 04:33:15;;;;;;;1.55;0.57;;;;;;;23.25;60.44;99197.19;5312159;26;20053;-95
2023/09/19 04:35:42;;;;;;;1.20;0.75;;;;;;;23.05;60.44;99195.53;5330847;26;20100;-95
2023/09/19 04:38:08;;;;;;;0.00;0.00;;;;;;;22.85;60.42;99208.81;5314821;26;20020;-93
2023/09/19 04:40:49;;;;;;;;;;;;;;;;;;;;;
2023/09/19 04:43:15;;;;;;;0.60;0.60;;;;;;;22.56;60.40;99218.56;5335403;26;34578;-93
2023/09/19 04:45:40;;;;;;;0.25;0.25;;;;;;;22.33;60.40;99232.06;5310926;26;20052;-93
2023/09/19 04:48:06;;;;;;;0.00;0.00;;;;;;;22.26;60.40;99227.44;5310439;26;20083;-92
2023/09/19 04:50:35;;;;;;;0.00;0.00;;;;;;;22.03;60.38;99226.78;5310541;26;20083;-94
2023/09/19 04:53:01;;;;;;;0.20;0.20;;;;;;;21.92;60.37;99226.88;5310618;26;20775;-93
2023/09/19 04:55:30;;;;;;;0.00;0.00;;;;;;;21.69;60.36;99237.66;5310124;26;20051;-92
2023/09/19 04:57:55;;;;;;;1.65;1.02;;;;;;;21.78;60.38;99228.09;5311104;26;20056;-95
2023/09/19 05:00:26;;;;;;;0.00;0.00;;;;;;;21.77;60.37;99231.72;5310699;26;20056;-94
2023/09/19 05:03:07;;;;;;;;;;;;;;;;;;;;;
2023/09/19 05:05:34;;;;;;;0.65;0.40;;;;;;;21.47;60.34;99247.56;5331116;26;35913;-95
2023/09/19 05:08:07;;;;;;;0.10;0.10;;;;;;;21.47;60.34;99259.00;5310401;26;20108;-93
2023/09/19 05:10:40;;;;;;;0.35;0.35;;;;;;;21.18;60.34;99257.94;5312881;26;20056;-93
2023/09/19 05:13:07;;;;;;;0.00;0.00;;;;;;;21.26;60.34;99271.38;5312263;26;20087;-93
2023/09/19 05:15:35;;;;;;;0.00;0.00;;;;;;;21.20;60.34;99266.56;5311140;26;20111;-94
2023/09/19 05:18:06;;;;;;;0.95;0.65;;;;;;;21.00;60.33;99270.88;5310807;26;20067;-93
2023/09/19 05:20:37;;;;;;;0.00;0.00;;;;;;;21.02;60.33;99275.06;5311957;26;20064;-95
2023/09/19 05:23:11;;;;;;;0.00;0.00;;;;;;;21.22;60.33;99270.78;5312487;26;20784;-94
2023/09/19 05:25:39;;;;;;;0.00;0.00;;;;;;;21.31;60.34;99269.22;5312272;26;20108;-95
2023/09/19 05:28:09;;;;;;;0.00;0.00;;;;;;;21.17;60.33;99282.72;5311743;26;20048;-94
2023/09/19 05:30:38;;;;;;;0.10;0.10;;;;;;;21.03;60.33;99274.09;5310977;26;20133;-95
2023/09/19 05:33:07;;;;;;;0.00;0.00;;;;;;;21.28;60.34;99278.22;5312309;26;20064;-95
2023/09/19 05:35:32;;;;;;;2.25;0.10;;;;;;;21.24;60.33;99273.31;5311892;26;21319;-94
2023/09/19 05:37:58;;;;;;;0.00;0.00;;;;;;;21.31;60.34;99266.56;5311337;26;20070;-93
2023/09/19 05:40:32;;;;;;;1.10;0.80;;;;;;;21.17;60.33;99265.03;5311341;26;20562;-94
2023/09/19 05:42:58;;;;;;;0.00;0.00;;;;;;;21.03;60.32;99262.69;5331105;26;20159;-93
2023/09/19 05:45:24;;;;;;;0.00;0.00;;;;;;;21.07;60.33;99269.41;5311124;26;20514;-94
2023/09/19 05:47:55;;;;;;;0.17;0.15;;;;;;;20.93;60.32;99275.00;5310960;26;20127;-94
2023/09/19 05:50:21;;;;;;;0.00;0.00;;;;;;;20.93;60.32;99275.84;5313076;26;20039;-94
2023/09/19 05:53:00;;;;;;;0.00;0.00;;;;;;;20.93;60.32;99278.47;5312394;26;20068;-95
2023/09/19 05:55:26;;;;;;;0.00;0.00;;;;;;;20.95;60.33;99278.34;5313960;26;20032;-94
2023/09/19 05:57:52;;;;;;;0.00;0.00;;;;;;;21.05;60.33;99285.41;5313327;26;20066;-95
2023/09/19 06:00:27;;;;;;;0.00;0.00;;;;;;;20.95;60.32;99278.34;5314250;26;20068;-93
2023/09/19 06:05:57;;;;;;;0.00;0.00;;;;;;;21.10;60.33;99277.09;5357638;26;20088;-92
2023/09/19 06:08:22;;;;;;;0.00;0.00;;;;;;;20.95;60.33;99284.47;5331482;26;20395;-94
2023/09/19 06:10:48;;;;;;;0.00;0.00;;;;;;;20.92;60.32;99289.19;5330222;26;20052;-95
2023/09/19 06:13:26;;;;;;;;;;;;;;;;;;;;;
2023/09/19 06:15:56;;;;;;;0.00;0.00;;;;;;;20.76;60.31;99292.25;5349019;26;36015;-95
2023/09/19 06:18:21;;;;;;;0.00;0.00;;;;;;;20.64;60.30;99291.44;5329951;26;20020;-93
2023/09/19 06:20:47;;;;;;;0.77;0.28;;;;;;;20.54;60.29;99296.62;5329176;26;20075;-94
2023/09/19 06:23:19;;;;;;;0.00;0.00;;;;;;;20.37;60.29;99294.47;5329563;26;20430;-94
2023/09/19 06:25:45;;;;;;;0.00;0.00;;;;;;;20.21;60.28;99289.53;5347914;26;20071;-95
2023/09/19 06:28:34;;;;;;;;;;;;;;;;;;;;;
2023/09/19 06:31:02;;;;;;;7.65;1.35;;;;;;;20.18;60.29;99308.28;5349777;26;35630;-94
2023/09/19 06:33:31;;;;;;;0.00;0.00;;;;;;;20.21;60.28;99320.41;5348182;26;20069;-95
2023/09/19 06:36:20;;;;;;;0.25;0.25;;;;;;;20.11;60.28;99320.31;5330209;26;20048;-94
2023/09/19 06:39:04;;;;;;;0.47;0.47;;;;;;;20.14;60.27;99319.22;5329439;26;20062;-95
2023/09/19 06:41:29;;;;;;;0.13;0.13;;;;;;;20.06;60.27;99319.81;5329930;26;20080;-94
2023/09/19 06:44:15;;;;;;;0.00;0.00;;;;;;;20.05;60.28;99312.00;5329424;26;20060;-94
2023/09/19 06:47:06;;;;;;;;;;;;;;;;;;;;;
2023/09/19 06:49:32;;;;;;;0.00;0.00;;;;;;;20.03;60.28;99321.84;5350966;26;35418;-95
2023/09/19 08:02:48;;;;;;;0.00;0.00;;;;;;;20.44;60.28;99427.88;5105670;27;20075;-95
2023/09/19 09:43:08;;;;;;;;;;;;;;;;;;;;;
2023/09/19 12:27:06;;;;;;;0.00;0.00;;;;;;;25.40;60.54;99495.88;5354896;26;20056;-96
2023/09/19 12:29:54;;;;;;;2.53;0.30;;;;;;;25.18;60.53;99509.59;5335120;26;20068;-96
2023/09/19 12:32:41;;;;;;;0.03;0.03;;;;;;;25.00;60.53;99498.87;5336322;26;20435;-96
2023/09/19 12:35:13;;;;;;;0.00;0.00;;;;;;;25.14;60.53;99497.56;5372616;26;20031;-96
2023/09/19 12:38:06;;;;;;;4.62;2.03;;;;;;;25.01;60.52;99508.53;5335724;26;20047;-96
2023/09/19 12:40:33;;;;;;;0.03;0.03;;;;;;;24.92;60.52;99518.22;5352268;26;20060;-96
2023/09/19 12:43:04;;;;;;;3.40;0.22;;;;;;;24.94;60.52;99512.75;5353193;26;20108;-94
2023/09/19 12:45:31;;;;;;;0.25;0.10;;;;;;;25.14;60.53;99505.56;5335824;26;20051;-96
2023/09/19 12:48:31;;;;;;;0.00;0.00;;;;;;;25.26;60.54;99504.34;5334308;26;20119;-96
2023/09/19 12:51:12;;;;;;;0.40;0.40;;;;;;;25.32;60.54;99507.28;5353655;26;20086;-96
2023/09/19 12:53:43;;;;;;;0.10;0.05;;;;;;;25.36;60.54;99498.00;5335359;26;20071;-96
2023/09/19 12:56:16;;;;;;;0.00;0.00;;;;;;;25.25;60.54;99503.53;5334340;26;20059;-96
2023/09/19 12:58:54;;;;;;;0.00;0.00;;;;;;;25.38;60.54;99498.69;5333788;26;20044;-96
2023/09/19 13:01:19;;;;;;;0.00;0.00;;;;;;;25.57;60.56;99492.41;5333685;26;20068;-96
2023/09/19 13:04:28;;;;;;;0.00;0.00;;;;;;;25.64;60.56;99489.97;5334072;26;20118;-96
2023/09/19 13:07:10;;;;;;;0.00;0.00;;;;;;;25.81;60.57;99488.31;5354452;26;20066;-96
2023/09/19 13:09:39;;;;;;;0.00;0.00;;;;;;;25.77;60.56;99495.78;5345351;26;20052;-96
2023/09/19 13:12:18;;;;;;;0.00;0.00;;;;;;;26.14;60.58;99484.09;5311915;26;20067;-96
2023/09/19 13:14:46;;;;;;;0.00;0.00;;;;;;;26.14;60.58;99494.78;5314393;26;20084;-96
2023/09/19 13:17:23;;;;;;;0.17;0.17;;;;;;;26.26;60.58;99498.84;5350042;26;20066;-96
2023/09/19 13:19:56;;;;;;;0.00;0.00;;;;;;;26.12;60.58;99494.94;5314799;26;20063;-96
2023/09/19 13:22:54;;;;;;;0.00;0.00;;;;;;;25.93;60.57;99505.75;5333089;26;20065;-96
2023/09/19 13:25:21;;;;;;;0.15;0.13;;;;;;;25.94;60.58;99505.59;5350801;26;20078;-96
2023/09/19 13:27:55;;;;;;;0.17;0.17;;;;;;;26.06;60.58;99497.37;5312039;26;20071;-96
2023/09/19 13:30:23;;;;;;;0.13;0.13;;;;;;;25.86;60.58;99499.38;5312802;26;20632;-96
2023/09/19 13:32:49;;;;;;;0.13;0.13;;;;;;;25.78;60.57;99505.44;5314352;26;20134;-96
2023/09/19 13:35:20;;;;;;;0.95;0.70;;;;;;;26.15;60.58;99499.13;5312998;26;20064;-95
2023/09/19 13:37:52;;;;;;;0.00;0.00;;;;;;;26.27;60.59;99503.22;5314068;26;20066;-96
2023/09/19 13:40:17;;;;;;;0.62;0.22;;;;;;;26.13;60.59;99517.09;5338293;26;20028;-95
2023/09/19 13:42:45;;;;;;;0.17;0.17;;;;;;;26.09;60.58;99518.41;5319948;26;20052;-95
2023/09/19 13:45:22;;;;;;;2.17;0.35;;;;;;;25.80;60.57;99516.00;5315872;26;20068;-96
2023/09/19 13:47:55;;;;;;;0.00;0.00;;;;;;;25.76;60.56;99517.25;5315651;26;20055;-95
2023/09/19 13:50:32;;;;;;;0.20;0.10;;;;;;;25.62;60.57;99523.94;5331979;26;20105;-96
2023/09/19 13:53:03;;;;;;;0.82;0.30;;;;;;;25.92;60.57;99515.59;5335434;26;20064;-96
2023/09/19 13:55:44;;;;;;;0.45;0.28;;;;;;;26.10;60.59;99520.09;5314147;26;20039;-96
2023/09/19 13:58:15;;;;;;;0.10;0.00;;;;;;;26.38;60.60;99521.69;5351160;26;20074;-96
2023/09/19 14:00:43;;;;;;;0.00;0.00;;;;;;;26.56;60.60;99517.12;5333214;26;20103;-95
2023/09/19 14:10:38;;;;;;;0.00;0.00;;;;;;;26.61;60.61;99522.00;5196847;27;20164;-95
2023/09/19 14:14:04;;;;;;;0.03;0.03;;;;;;;26.39;60.60;99528.69;5237749;27;20077;-95
2023/09/19 14:16:41;;;;;;;0.30;0.30;;;;;;;26.22;60.59;99532.19;5192266;27;20063;-96
2023/09/19 14:27:09;;;;;;;;;;;;;;;;;;;;;
2023/09/19 14:30:29;;;;;;;;;;;;;;;;;;;;;
2023/09/19 18:46:29;;;;;;;0.10;0.10;;;;;;;20.60;60.30;99691.97;5165589;27;20282;-94
2023/09/19 18:49:51;;;;;;;0.47;0.30;;;;;;;20.68;60.30;99694.03;5092014;27;20083;-95
2023/09/19 20:01:20;;;;;;;;;;;;;;;;;;;;;
2023/09/19 20:04:32;;;;;;;;;;;;;;;;;;;;;
2023/09/19 20:10:34;;;;;;;;;;;;;;;19.69;60.25;99738.22;5083647;28;20737;-95
2023/09/19 20:20:52;;;;;;;;;;;;;;;;;;;;;
2023/09/19 20:24:07;;;;;;;1.15;0.68;;;;;;;19.29;60.23;99747.03;5233602;27;36265;-95
2023/09/19 20:27:16;;;;;;;;;;;;;;;;;;;;;
2023/09/19 20:37:49;;;;;;;;;;;;;;;;;;;;;
2023/09/19 20:44:19;;;;;;;0.68;0.32;;;;;;;18.64;60.20;99754.06;5365398;26;20074;-94
2023/09/19 20:50:32;;;;;;;0.20;0.20;;;;;;;18.82;60.20;99752.00;5325511;26;20093;-95
2023/09/19 20:57:19;;;;;;;;;;;;;;;;;;;;;
2023/09/19 21:00:20;;;;;;;0.17;0.17;;;;;;;18.86;60.21;99759.59;5275729;27;35517;-93
2023/09/19 21:06:13;;;;;;;0.82;0.70;;;;;;;18.94;60.22;99748.56;5273166;27;20091;-93
2023/09/19 21:08:57;;;;;;;;;;;;;;;;;;;;;
2023/09/19 21:11:56;;;;;;;0.00;0.00;;;;;;;18.58;60.19;99757.91;5259409;27;35483;-95
2023/09/19 21:17:26;;;;;;;;;;;;;;;;;;;;;
2023/09/19 21:20:19;;;;;;;0.08;0.08;;;;;;;18.66;60.19;99762.69;5326564;26;36529;-95
2023/09/19 21:23:16;;;;;;;;;;;;;;;;;;;;;
2023/09/19 21:25:59;;;;;;;0.22;0.22;;;;;;;18.62;60.20;99780.50;5313910;26;20106;-94
2023/09/19 21:28:51;;;;;;;0.15;0.15;;;;;;;18.53;60.18;99774.97;5307790;26;20025;-95
2023/09/19 21:31:40;;;;;;;;;;;;;;;;;;;;;
2023/09/19 21:34:26;;;;;;;0.80;0.35;;;;;;;18.73;60.20;99779.00;5311895;26;37583;-94
2023/09/19 21:37:13;;;;;;;;;;;;;;;;;;;;;
2023/09/19 21:39:48;;;;;;;2.65;0.30;;;;;;;18.52;60.19;99786.47;5332285;26;38137;-95
2023/09/19 21:42:33;;;;;;;0.03;0.03;;;;;;;18.59;60.19;99785.13;5331189;26;20035;-94
2023/09/19 21:49:00;;;;;;;0.00;0.00;;;;;;;18.48;60.19;99791.09;5333354;26;20113;-93
2023/09/19 21:51:41;;;;;;;;;;;;;;;;;;;;;
2023/09/19 21:54:30;;;;;;;2.55;0.30;;;;;;;18.46;60.19;99787.72;5332704;26;36443;-93
2023/09/19 21:56:59;;;;;;;0.10;0.10;;;;;;;18.25;60.18;99786.44;5332544;26;20197;-94
2023/09/19 21:59:44;;;;;;;;;;;;;;;;;;;;;
2023/09/19 22:02:12;;;;;;;0.00;0.00;;;;;;;18.20;60.17;99793.75;5355273;26;35559;-94
2023/09/19 22:11:33;;;;;;;0.00;0.00;;;;;;;18.37;60.18;99791.75;5344607;26;20058;-92
2023/09/19 22:14:36;;;;;;;0.00;0.00;;;;;;;18.26;60.18;99785.47;5322505;26;101774;-94
2023/09/19 22:17:10;;;;;;;0.00;0.00;;;;;;;18.16;60.18;99787.84;5325053;26;20064;-93
2023/09/19 22:20:37;;;;;;;0.73;0.30;;;;;;;18.23;60.18;99785.69;5325637;26;20060;-93
2023/09/19 22:23:24;;;;;;;0.00;0.00;;;;;;;18.27;60.18;99789.81;5328173;26;20390;-94
2023/09/19 22:25:51;;;;;;;0.25;0.25;;;;;;;18.39;60.18;99789.88;5308588;26;20039;-94
2023/09/19 22:28:16;;;;;;;0.00;0.00;;;;;;;18.21;60.17;99793.66;5344553;26;20080;-93
2023/09/19 22:30:44;;;;;;;0.00;0.00;;;;;;;18.01;60.16;99794.91;5325472;26;20421;-94
2023/09/19 22:33:15;;;;;;;0.00;0.00;;;;;;;18.05;60.17;99790.31;5326066;26;20056;-94
2023/09/19 22:35:50;;;;;;;0.13;0.13;;;;;;;17.72;60.15;99796.69;5325827;26;20068;-94
2023/09/19 22:38:16;;;;;;;0.00;0.00;;;;;;;17.77;60.14;99799.06;5345006;26;20039;-93
2023/09/19 22:40:43;;;;;;;0.00;0.00;;;;;;;17.78;60.14;99798.13;5327246;26;20056;-94
2023/09/19 22:43:12;;;;;;;0.13;0.13;;;;;;;17.81;60.15;99813.72;5328339;26;20045;-96
2023/09/19 22:45:39;;;;;;;0.00;0.00;;;;;;;17.71;60.15;99810.78;5327689;26;20064;-95
2023/09/19 22:48:05;;;;;;;0.35;0.35;;;;;;;17.81;60.15;99813.72;5327390;26;20054;-94
2023/09/19 22:50:36;;;;;;;0.25;0.25;;;;;;;17.67;60.14;99811.91;5326860;26;20879;-93
2023/09/19 22:53:03;;;;;;;0.20;0.10;;;;;;;17.66;60.14;99814.59;5327014;26;20075;-93
2023/09/19 22:55:31;;;;;;;0.28;0.28;;;;;;;17.62;60.13;99813.94;5327749;26;20075;-95
2023/09/19 22:57:57;;;;;;;0.00;0.00;;;;;;;17.64;60.14;99812.06;5328403;26;20082;-95
2023/09/19 23:00:28;;;;;;;0.32;0.30;;;;;;;17.60;60.14;99810.56;5327882;26;20072;-95
2023/09/19 23:02:54;;;;;;;0.10;0.10;;;;;;;17.54;60.14;99818.00;5327702;26;20066;-94
2023/09/19 23:05:23;;;;;;;0.10;0.10;;;;;;;17.55;60.14;99815.25;5327389;26;20068;-94
2023/09/19 23:07:55;;;;;;;0.98;0.43;;;;;;;17.52;60.13;99818.06;5327122;26;20678;-93
2023/09/19 23:10:21;;;;;;;0.00;0.00;;;;;;;17.59;60.14;99815.91;5346473;26;20087;-95
2023/09/19 23:12:46;;;;;;;6.35;1.15;;;;;;;17.59;60.14;99811.50;5327663;26;20659;-95
2023/09/19 23:15:17;;;;;;;0.77;0.50;;;;;;;17.57;60.14;99816.00;5329726;26;20103;-94
2023/09/19 23:17:47;;;;;;;0.10;0.10;;;;;;;17.54;60.13;99824.09;5328309;26;20432;-93
2023/09/19 23:20:24;;;;;;;0.00;0.00;;;;;;;17.48;60.13;99827.91;5329271;26;20468;-93
2023/09/19 23:22:54;;;;;;;0.40;0.35;;;;;;;17.54;60.13;99815.34;5331820;26;20057;-94
2023/09/19 23:25:27;;;;;;;0.43;0.43;;;;;;;17.33;60.13;99822.72;5339662;26;20037;-95
2023/09/19 23:27:56;;;;;;;0.15;0.15;;;;;;;17.34;60.12;99824.41;5348861;26;20133;-95
2023/09/19 23:30:22;;;;;;;0.00;0.00;;;;;;;17.31;60.12;99821.97;5327595;26;20134;-95
2023/09/19 23:32:48;;;;;;;0.35;0.35;;;;;;;17.49;60.14;99824.34;5327433;26;20057;-94
2023/09/19 23:35:14;;;;;;;0.03;0.03;;;;;;;17.25;60.12;99828.41;5327009;26;20091;-93
2023/09/19 23:37:40;;;;;;;2.40;0.30;;;;;;;17.46;60.14;99824.53;5327274;26;20118;-94
2023/09/19 23:40:09;;;;;;;0.05;0.05;;;;;;;17.18;60.12;99825.31;5327257;26;20424;-95
2023/09/19 23:42:35;;;;;;;0.40;0.40;;;;;;;17.18;60.12;99832.34;5327290;26;20644;-95
2023/09/19 23:45:01;;;;;;;0.40;0.40;;;;;;;17.23;60.12;99832.06;5327203;26;20065;-95
2023/09/19 23:47:30;;;;;;;1.95;1.10;;;;;;;17.33;60.13;99828.84;5327001;26;20113;-96
2023/09/19 23:49:57;;;;;;;0.00;0.00;;;;;;;17.30;60.12;99823.75;5345879;26;20021;-95
2023/09/19 23:52:22;;;;;;;2.30;0.62;;;;;;;17.44;60.13;99825.56;5327254;26;20093;-94
2023/09/19 23:54:48;;;;;;;0.00;0.00;;;;;;;17.29;60.12;99813.31;5326982;26;20095;-96
2023/09/19 23:57:14;;;;;;;0.00;0.00;;;;;;;17.24;60.12;99820.63;5327605;26;20075;-94
2023/09/19 23:59:45;;;;;;;0.10;0.10;;;;;;;17.41;60.13;99825.75;5327248;26;20069;-95
